sensor_id;sensor_type;location;lat;lon;timestamp;temperature;humidity
17240;DHT22;9943;54.378;18.604;2022-09-13T00:00:18;11.20;99.90
17240;DHT22;9943;54.378;18.604;2022-09-13T00:02:48;11.20;99.90
17240;DHT22;9943;54.378;18.604;2022-09-13T00:05:18;11.30;99.90
17240;DHT22;9943;54.378;18.604;2022-09-13T00:07:48;11.20;99.90
17240;DHT22;9943;54.378;18.604;2022-09-13T00:10:25;11.10;99.90
17240;DHT22;9943;54.378;18.604;2022-09-13T00:12:56;11.30;99.90
17240;DHT22;9943;54.378;18.604;2022-09-13T00:15:28;11.20;99.90
17240;DHT22;9943;54.378;18.604;2022-09-13T00:17:58;11.10;99.90
17240;DHT22;9943;54.378;18.604;2022-09-13T00:20:29;11.10;99.90
17240;DHT22;9943;54.378;18.604;2022-09-13T00:23:00;11.10;99.90
17240;DHT22;9943;54.378;18.604;2022-09-13T00:25:30;11.10;99.90
17240;DHT22;9943;54.378;18.604;2022-09-13T00:27:58;11.00;99.90
17240;DHT22;9943;54.378;18.604;2022-09-13T00:30:30;11.10;99.90
17240;DHT22;9943;54.378;18.604;2022-09-13T00:33:04;11.10;99.90
17240;DHT22;9943;54.378;18.604;2022-09-13T00:35:38;10.90;99.90
17240;DHT22;9943;54.378;18.604;2022-09-13T00:38:11;10.90;99.90
17240;DHT22;9943;54.378;18.604;2022-09-13T00:40:43;10.90;99.90
17240;DHT22;9943;54.378;18.604;2022-09-13T00:43:17;10.90;99.90
17240;DHT22;9943;54.378;18.604;2022-09-13T00:45:50;10.90;99.90
17240;DHT22;9943;54.378;18.604;2022-09-13T00:48:21;10.90;99.90
17240;DHT22;9943;54.378;18.604;2022-09-13T00:50:53;11.20;99.90
17240;DHT22;9943;54.378;18.604;2022-09-13T00:53:27;10.80;99.90
17240;DHT22;9943;54.378;18.604;2022-09-13T00:56:05;10.80;99.90
17240;DHT22;9943;54.378;18.604;2022-09-13T00:58:45;10.80;99.90
17240;DHT22;9943;54.378;18.604;2022-09-13T01:01:20;10.90;99.90
17240;DHT22;9943;54.378;18.604;2022-09-13T01:03:52;10.70;99.90
17240;DHT22;9943;54.378;18.604;2022-09-13T01:06:32;10.70;99.90
17240;DHT22;9943;54.378;18.604;2022-09-13T01:09:05;10.60;99.90
17240;DHT22;9943;54.378;18.604;2022-09-13T01:11:42;10.80;99.90
17240;DHT22;9943;54.378;18.604;2022-09-13T01:14:14;10.80;99.90
17240;DHT22;9943;54.378;18.604;2022-09-13T01:16:49;11.00;99.90
17240;DHT22;9943;54.378;18.604;2022-09-13T01:19:18;10.90;99.90
17240;DHT22;9943;54.378;18.604;2022-09-13T01:22:09;10.90;99.90
17240;DHT22;9943;54.378;18.604;2022-09-13T01:24:59;10.90;99.90
17240;DHT22;9943;54.378;18.604;2022-09-13T01:27:51;10.80;99.90
17240;DHT22;9943;54.378;18.604;2022-09-13T01:30:31;10.90;99.90
17240;DHT22;9943;54.378;18.604;2022-09-13T01:36:24;10.70;99.90
17240;DHT22;9943;54.378;18.604;2022-09-13T01:41:58;10.50;99.90
17240;DHT22;9943;54.378;18.604;2022-09-13T01:44:50;10.80;99.90
17240;DHT22;9943;54.378;18.604;2022-09-13T01:47:42;11.30;99.90
17240;DHT22;9943;54.378;18.604;2022-09-13T01:50:19;11.10;99.90
17240;DHT22;9943;54.378;18.604;2022-09-13T01:52:54;11.10;99.90
17240;DHT22;9943;54.378;18.604;2022-09-13T01:55:31;11.20;99.90
17240;DHT22;9943;54.378;18.604;2022-09-13T01:58:36;11.20;99.90
17240;DHT22;9943;54.378;18.604;2022-09-13T02:01:14;11.20;99.90
17240;DHT22;9943;54.378;18.604;2022-09-13T02:03:48;11.20;99.90
17240;DHT22;9943;54.378;18.604;2022-09-13T02:06:27;11.30;99.90
17240;DHT22;9943;54.378;18.604;2022-09-13T02:09:01;11.30;99.90
17240;DHT22;9943;54.378;18.604;2022-09-13T02:11:34;11.30;99.90
17240;DHT22;9943;54.378;18.604;2022-09-13T02:14:08;11.10;99.90
17240;DHT22;9943;54.378;18.604;2022-09-13T02:16:40;10.90;99.90
17240;DHT22;9943;54.378;18.604;2022-09-13T02:19:15;11.00;99.90
17240;DHT22;9943;54.378;18.604;2022-09-13T02:21:52;11.10;99.90
17240;DHT22;9943;54.378;18.604;2022-09-13T02:24:26;10.90;99.90
17240;DHT22;9943;54.378;18.604;2022-09-13T02:27:00;10.80;99.90
17240;DHT22;9943;54.378;18.604;2022-09-13T02:29:35;10.70;99.90
17240;DHT22;9943;54.378;18.604;2022-09-13T02:32:09;10.60;99.90
17240;DHT22;9943;54.378;18.604;2022-09-13T02:34:44;10.70;99.90
17240;DHT22;9943;54.378;18.604;2022-09-13T02:37:16;10.70;99.90
17240;DHT22;9943;54.378;18.604;2022-09-13T02:39:52;10.60;99.90
17240;DHT22;9943;54.378;18.604;2022-09-13T02:42:29;10.60;99.90
17240;DHT22;9943;54.378;18.604;2022-09-13T02:45:00;10.70;99.90
17240;DHT22;9943;54.378;18.604;2022-09-13T02:47:39;11.10;99.90
17240;DHT22;9943;54.378;18.604;2022-09-13T02:50:22;10.70;99.90
17240;DHT22;9943;54.378;18.604;2022-09-13T02:53:00;10.80;99.90
17240;DHT22;9943;54.378;18.604;2022-09-13T02:55:38;10.80;99.90
17240;DHT22;9943;54.378;18.604;2022-09-13T02:58:11;10.70;99.90
17240;DHT22;9943;54.378;18.604;2022-09-13T03:00:41;10.80;99.90
17240;DHT22;9943;54.378;18.604;2022-09-13T03:03:16;10.70;99.90
17240;DHT22;9943;54.378;18.604;2022-09-13T03:05:46;10.80;99.90
17240;DHT22;9943;54.378;18.604;2022-09-13T03:08:17;10.90;99.90
17240;DHT22;9943;54.378;18.604;2022-09-13T03:11:07;10.90;99.90
17240;DHT22;9943;54.378;18.604;2022-09-13T03:14:29;10.90;99.90
17240;DHT22;9943;54.378;18.604;2022-09-13T03:17:14;10.90;99.90
17240;DHT22;9943;54.378;18.604;2022-09-13T03:20:02;11.10;99.90
17240;DHT22;9943;54.378;18.604;2022-09-13T03:23:20;11.00;99.90
17240;DHT22;9943;54.378;18.604;2022-09-13T03:26:11;11.20;99.90
17240;DHT22;9943;54.378;18.604;2022-09-13T03:28:53;11.10;99.90
17240;DHT22;9943;54.378;18.604;2022-09-13T03:31:31;11.20;99.90
17240;DHT22;9943;54.378;18.604;2022-09-13T03:34:08;11.20;99.90
17240;DHT22;9943;54.378;18.604;2022-09-13T03:36:44;11.40;99.90
17240;DHT22;9943;54.378;18.604;2022-09-13T03:39:25;11.30;99.90
17240;DHT22;9943;54.378;18.604;2022-09-13T03:42:28;11.40;99.90
17240;DHT22;9943;54.378;18.604;2022-09-13T03:45:01;11.40;99.90
17240;DHT22;9943;54.378;18.604;2022-09-13T03:47:36;11.40;99.90
17240;DHT22;9943;54.378;18.604;2022-09-13T03:50:18;11.40;99.90
17240;DHT22;9943;54.378;18.604;2022-09-13T03:52:52;11.50;99.90
17240;DHT22;9943;54.378;18.604;2022-09-13T03:55:28;11.50;99.90
17240;DHT22;9943;54.378;18.604;2022-09-13T03:58:04;11.40;99.90
17240;DHT22;9943;54.378;18.604;2022-09-13T04:00:34;11.40;99.90
17240;DHT22;9943;54.378;18.604;2022-09-13T04:03:03;11.40;99.90
17240;DHT22;9943;54.378;18.604;2022-09-13T04:05:38;11.30;99.90
17240;DHT22;9943;54.378;18.604;2022-09-13T04:08:07;11.30;99.90
17240;DHT22;9943;54.378;18.604;2022-09-13T04:10:42;11.40;99.90
17240;DHT22;9943;54.378;18.604;2022-09-13T04:13:14;11.40;99.90
17240;DHT22;9943;54.378;18.604;2022-09-13T04:15:45;11.40;99.90
17240;DHT22;9943;54.378;18.604;2022-09-13T04:18:13;11.50;99.90
17240;DHT22;9943;54.378;18.604;2022-09-13T04:20:42;11.60;99.90
17240;DHT22;9943;54.378;18.604;2022-09-13T04:23:12;11.60;99.90
17240;DHT22;9943;54.378;18.604;2022-09-13T04:25:42;11.80;99.90
17240;DHT22;9943;54.378;18.604;2022-09-13T04:28:45;11.80;99.90
17240;DHT22;9943;54.378;18.604;2022-09-13T04:31:16;11.90;99.90
17240;DHT22;9943;54.378;18.604;2022-09-13T04:33:52;11.60;99.90
17240;DHT22;9943;54.378;18.604;2022-09-13T04:36:24;11.90;99.90
17240;DHT22;9943;54.378;18.604;2022-09-13T04:38:54;12.00;99.90
17240;DHT22;9943;54.378;18.604;2022-09-13T04:41:25;12.00;99.90
17240;DHT22;9943;54.378;18.604;2022-09-13T04:43:56;11.70;99.90
17240;DHT22;9943;54.378;18.604;2022-09-13T04:46:27;11.90;99.90
17240;DHT22;9943;54.378;18.604;2022-09-13T04:48:59;12.10;99.90
17240;DHT22;9943;54.378;18.604;2022-09-13T04:51:31;11.90;99.90
17240;DHT22;9943;54.378;18.604;2022-09-13T04:53:59;12.20;99.90
17240;DHT22;9943;54.378;18.604;2022-09-13T04:56:35;12.20;99.90
17240;DHT22;9943;54.378;18.604;2022-09-13T04:59:04;12.20;99.90
17240;DHT22;9943;54.378;18.604;2022-09-13T05:01:33;12.20;99.90
17240;DHT22;9943;54.378;18.604;2022-09-13T05:04:02;12.30;99.90
17240;DHT22;9943;54.378;18.604;2022-09-13T05:06:32;12.50;99.90
17240;DHT22;9943;54.378;18.604;2022-09-13T05:09:03;12.50;99.90
17240;DHT22;9943;54.378;18.604;2022-09-13T05:11:32;12.60;99.90
17240;DHT22;9943;54.378;18.604;2022-09-13T05:14:03;12.70;99.90
17240;DHT22;9943;54.378;18.604;2022-09-13T05:16:33;12.70;99.90
17240;DHT22;9943;54.378;18.604;2022-09-13T05:19:03;12.80;99.90
17240;DHT22;9943;54.378;18.604;2022-09-13T05:21:39;12.70;99.90
17240;DHT22;9943;54.378;18.604;2022-09-13T05:24:10;13.00;99.90
17240;DHT22;9943;54.378;18.604;2022-09-13T05:26:40;12.60;99.90
17240;DHT22;9943;54.378;18.604;2022-09-13T05:29:14;12.70;99.90
17240;DHT22;9943;54.378;18.604;2022-09-13T05:31:47;12.90;99.90
17240;DHT22;9943;54.378;18.604;2022-09-13T05:34:20;13.20;99.90
17240;DHT22;9943;54.378;18.604;2022-09-13T16:33:07;13.70;99.90
17240;DHT22;9943;54.378;18.604;2022-09-13T16:35:53;16.70;99.90
17240;DHT22;9943;54.378;18.604;2022-09-13T16:38:44;16.60;99.90
17240;DHT22;9943;54.378;18.604;2022-09-13T16:41:51;16.60;99.90
17240;DHT22;9943;54.378;18.604;2022-09-13T16:44:35;16.60;99.90
17240;DHT22;9943;54.378;18.604;2022-09-13T16:47:12;16.70;99.90
17240;DHT22;9943;54.378;18.604;2022-09-13T16:49:53;16.50;99.90
17240;DHT22;9943;54.378;18.604;2022-09-13T16:52:52;16.50;99.90
17240;DHT22;9943;54.378;18.604;2022-09-13T16:55:22;16.50;99.90
17240;DHT22;9943;54.378;18.604;2022-09-13T16:58:24;16.40;99.90
17240;DHT22;9943;54.378;18.604;2022-09-13T17:01:29;16.30;99.90
17240;DHT22;9943;54.378;18.604;2022-09-13T17:04:31;16.10;99.90
17240;DHT22;9943;54.378;18.604;2022-09-13T17:07:04;15.90;99.90
17240;DHT22;9943;54.378;18.604;2022-09-13T17:10:02;16.00;99.90
17240;DHT22;9943;54.378;18.604;2022-09-13T17:12:49;15.90;99.90
17240;DHT22;9943;54.378;18.604;2022-09-13T17:15:37;15.80;99.90
17240;DHT22;9943;54.378;18.604;2022-09-13T17:18:08;15.80;99.90
17240;DHT22;9943;54.378;18.604;2022-09-13T17:20:44;15.60;99.90
17240;DHT22;9943;54.378;18.604;2022-09-13T17:23:24;15.60;99.90
17240;DHT22;9943;54.378;18.604;2022-09-13T17:26:24;15.60;99.90
17240;DHT22;9943;54.378;18.604;2022-09-13T17:29:07;15.40;99.90
17240;DHT22;9943;54.378;18.604;2022-09-13T17:31:45;15.50;99.90
17240;DHT22;9943;54.378;18.604;2022-09-13T17:34:39;15.30;99.90
17240;DHT22;9943;54.378;18.604;2022-09-13T17:37:24;16.00;99.90
17240;DHT22;9943;54.378;18.604;2022-09-13T17:40:01;15.20;99.90
17240;DHT22;9943;54.378;18.604;2022-09-13T17:42:44;15.20;99.90
17240;DHT22;9943;54.378;18.604;2022-09-13T17:45:29;15.10;99.90
17240;DHT22;9943;54.378;18.604;2022-09-13T17:48:22;15.00;99.90
17240;DHT22;9943;54.378;18.604;2022-09-13T17:58:44;14.90;99.90
17240;DHT22;9943;54.378;18.604;2022-09-13T18:05:00;14.80;99.90
17240;DHT22;9943;54.378;18.604;2022-09-13T18:07:34;14.70;99.90
17240;DHT22;9943;54.378;18.604;2022-09-13T18:10:06;14.40;99.90
17240;DHT22;9943;54.378;18.604;2022-09-13T18:12:45;14.60;99.90
17240;DHT22;9943;54.378;18.604;2022-09-13T18:15:31;14.60;99.90
17240;DHT22;9943;54.378;18.604;2022-09-13T18:18:11;14.60;99.90
17240;DHT22;9943;54.378;18.604;2022-09-13T18:20:44;14.70;99.90
17240;DHT22;9943;54.378;18.604;2022-09-13T18:23:28;14.50;99.90
17240;DHT22;9943;54.378;18.604;2022-09-13T18:26:04;14.30;99.90
17240;DHT22;9943;54.378;18.604;2022-09-13T18:28:37;14.40;99.90
17240;DHT22;9943;54.378;18.604;2022-09-13T18:31:21;14.40;99.90
17240;DHT22;9943;54.378;18.604;2022-09-13T18:34:08;14.30;99.90
17240;DHT22;9943;54.378;18.604;2022-09-13T18:36:47;14.30;99.90
17240;DHT22;9943;54.378;18.604;2022-09-13T18:39:25;14.30;99.90
17240;DHT22;9943;54.378;18.604;2022-09-13T18:42:06;14.20;99.90
17240;DHT22;9943;54.378;18.604;2022-09-13T18:45:09;14.30;99.90
17240;DHT22;9943;54.378;18.604;2022-09-13T18:48:23;14.20;99.90
17240;DHT22;9943;54.378;18.604;2022-09-13T18:50:54;14.10;99.90
17240;DHT22;9943;54.378;18.604;2022-09-13T18:53:34;14.20;99.90
17240;DHT22;9943;54.378;18.604;2022-09-13T18:56:12;14.00;99.90
17240;DHT22;9943;54.378;18.604;2022-09-13T18:59:00;14.20;99.90
17240;DHT22;9943;54.378;18.604;2022-09-13T19:01:53;14.50;99.90
17240;DHT22;9943;54.378;18.604;2022-09-13T19:04:29;14.00;99.90
17240;DHT22;9943;54.378;18.604;2022-09-13T19:07:05;13.80;99.90
17240;DHT22;9943;54.378;18.604;2022-09-13T19:09:44;14.10;99.90
17240;DHT22;9943;54.378;18.604;2022-09-13T19:12:27;14.10;99.90
17240;DHT22;9943;54.378;18.604;2022-09-13T19:15:00;14.10;99.90
17240;DHT22;9943;54.378;18.604;2022-09-13T19:17:34;14.00;99.90
17240;DHT22;9943;54.378;18.604;2022-09-13T19:20:42;14.00;99.90
17240;DHT22;9943;54.378;18.604;2022-09-13T19:23:11;14.00;99.90
17240;DHT22;9943;54.378;18.604;2022-09-13T19:25:49;13.60;99.90
17240;DHT22;9943;54.378;18.604;2022-09-13T19:28:23;14.10;99.90
17240;DHT22;9943;54.378;18.604;2022-09-13T19:31:03;14.10;99.90
17240;DHT22;9943;54.378;18.604;2022-09-13T19:33:34;13.80;99.90
17240;DHT22;9943;54.378;18.604;2022-09-13T19:36:20;13.80;99.90
17240;DHT22;9943;54.378;18.604;2022-09-13T19:38:57;13.90;99.90
17240;DHT22;9943;54.378;18.604;2022-09-13T19:49:14;13.90;99.90
17240;DHT22;9943;54.378;18.604;2022-09-13T19:52:08;13.80;99.90
17240;DHT22;9943;54.378;18.604;2022-09-13T19:55:04;13.90;99.90
17240;DHT22;9943;54.378;18.604;2022-09-13T19:57:50;13.80;99.90
17240;DHT22;9943;54.378;18.604;2022-09-13T20:00:29;13.80;99.90
17240;DHT22;9943;54.378;18.604;2022-09-13T20:03:16;13.70;99.90
17240;DHT22;9943;54.378;18.604;2022-09-13T20:05:53;13.80;99.90
17240;DHT22;9943;54.378;18.604;2022-09-13T20:08:36;13.70;99.90
17240;DHT22;9943;54.378;18.604;2022-09-13T20:11:11;13.90;99.90
17240;DHT22;9943;54.378;18.604;2022-09-13T20:13:47;13.70;99.90
17240;DHT22;9943;54.378;18.604;2022-09-13T20:16:37;13.80;99.90
17240;DHT22;9943;54.378;18.604;2022-09-13T20:19:25;13.80;99.90
17240;DHT22;9943;54.378;18.604;2022-09-13T20:22:01;13.60;99.90
17240;DHT22;9943;54.378;18.604;2022-09-13T20:24:44;13.60;99.90
17240;DHT22;9943;54.378;18.604;2022-09-13T20:27:14;14.20;99.90
17240;DHT22;9943;54.378;18.604;2022-09-13T20:30:03;13.50;99.90
17240;DHT22;9943;54.378;18.604;2022-09-13T20:32:40;13.80;99.90
17240;DHT22;9943;54.378;18.604;2022-09-13T20:35:10;13.60;99.90
17240;DHT22;9943;54.378;18.604;2022-09-13T20:37:56;13.70;99.90
17240;DHT22;9943;54.378;18.604;2022-09-13T20:44:32;13.40;99.90
17240;DHT22;9943;54.378;18.604;2022-09-13T20:47:10;13.70;99.90
17240;DHT22;9943;54.378;18.604;2022-09-13T20:49:41;13.50;99.90
17240;DHT22;9943;54.378;18.604;2022-09-13T20:52:17;13.50;99.90
17240;DHT22;9943;54.378;18.604;2022-09-13T20:54:50;13.20;99.90
17240;DHT22;9943;54.378;18.604;2022-09-13T20:57:19;13.40;99.90
17240;DHT22;9943;54.378;18.604;2022-09-13T20:59:51;13.40;99.90
17240;DHT22;9943;54.378;18.604;2022-09-13T21:02:23;13.40;99.90
17240;DHT22;9943;54.378;18.604;2022-09-13T21:04:51;13.40;99.90
17240;DHT22;9943;54.378;18.604;2022-09-13T21:07:21;13.40;99.90
17240;DHT22;9943;54.378;18.604;2022-09-13T21:10:09;13.40;99.90
17240;DHT22;9943;54.378;18.604;2022-09-13T21:12:38;13.50;99.90
17240;DHT22;9943;54.378;18.604;2022-09-13T21:15:11;13.40;99.90
17240;DHT22;9943;54.378;18.604;2022-09-13T21:17:43;13.40;99.90
17240;DHT22;9943;54.378;18.604;2022-09-13T21:20:13;13.40;99.90
17240;DHT22;9943;54.378;18.604;2022-09-13T21:22:44;13.40;99.90
17240;DHT22;9943;54.378;18.604;2022-09-13T21:25:14;13.40;99.90
17240;DHT22;9943;54.378;18.604;2022-09-13T21:27:43;13.30;99.90
17240;DHT22;9943;54.378;18.604;2022-09-13T21:30:13;13.50;99.90
17240;DHT22;9943;54.378;18.604;2022-09-13T21:32:44;13.50;99.90
17240;DHT22;9943;54.378;18.604;2022-09-13T21:35:12;13.50;99.90
17240;DHT22;9943;54.378;18.604;2022-09-13T21:37:41;13.50;99.90
17240;DHT22;9943;54.378;18.604;2022-09-13T21:40:12;13.30;99.90
17240;DHT22;9943;54.378;18.604;2022-09-13T21:42:43;13.40;99.90
17240;DHT22;9943;54.378;18.604;2022-09-13T21:45:15;13.30;99.90
17240;DHT22;9943;54.378;18.604;2022-09-13T21:47:44;13.40;99.90
17240;DHT22;9943;54.378;18.604;2022-09-13T21:50:14;13.30;99.90
17240;DHT22;9943;54.378;18.604;2022-09-13T21:52:43;13.20;99.90
17240;DHT22;9943;54.378;18.604;2022-09-13T21:55:13;13.40;99.90
17240;DHT22;9943;54.378;18.604;2022-09-13T21:57:44;13.30;99.90
17240;DHT22;9943;54.378;18.604;2022-09-13T22:00:17;13.30;99.90
17240;DHT22;9943;54.378;18.604;2022-09-13T22:02:47;13.30;99.90
17240;DHT22;9943;54.378;18.604;2022-09-13T22:05:23;13.40;99.90
17240;DHT22;9943;54.378;18.604;2022-09-13T22:07:52;13.30;99.90
17240;DHT22;9943;54.378;18.604;2022-09-13T22:10:24;13.40;99.90
17240;DHT22;9943;54.378;18.604;2022-09-13T22:12:53;13.40;99.90
17240;DHT22;9943;54.378;18.604;2022-09-13T22:15:29;13.40;99.90
17240;DHT22;9943;54.378;18.604;2022-09-13T22:18:02;13.20;99.90
17240;DHT22;9943;54.378;18.604;2022-09-13T22:20:34;13.30;99.90
17240;DHT22;9943;54.378;18.604;2022-09-13T22:23:04;13.30;99.90
17240;DHT22;9943;54.378;18.604;2022-09-13T22:25:38;13.10;99.90
17240;DHT22;9943;54.378;18.604;2022-09-13T22:28:11;13.10;99.90
17240;DHT22;9943;54.378;18.604;2022-09-13T22:30:46;13.40;99.90
17240;DHT22;9943;54.378;18.604;2022-09-13T22:33:15;13.20;99.90
17240;DHT22;9943;54.378;18.604;2022-09-13T22:35:57;13.30;99.90
17240;DHT22;9943;54.378;18.604;2022-09-13T22:38:28;13.10;99.90
17240;DHT22;9943;54.378;18.604;2022-09-13T22:41:00;13.10;99.90
17240;DHT22;9943;54.378;18.604;2022-09-13T22:43:34;13.20;99.90
17240;DHT22;9943;54.378;18.604;2022-09-13T22:46:11;13.20;99.90
17240;DHT22;9943;54.378;18.604;2022-09-13T22:48:41;13.00;99.90
17240;DHT22;9943;54.378;18.604;2022-09-13T22:51:12;13.20;99.90
17240;DHT22;9943;54.378;18.604;2022-09-13T22:53:43;13.10;99.90
17240;DHT22;9943;54.378;18.604;2022-09-13T22:56:13;13.00;99.90
17240;DHT22;9943;54.378;18.604;2022-09-13T22:58:43;13.00;99.90
17240;DHT22;9943;54.378;18.604;2022-09-13T23:01:15;13.00;99.90
17240;DHT22;9943;54.378;18.604;2022-09-13T23:03:53;13.00;99.90
17240;DHT22;9943;54.378;18.604;2022-09-13T23:06:24;13.00;99.90
17240;DHT22;9943;54.378;18.604;2022-09-13T23:08:55;13.00;99.90
17240;DHT22;9943;54.378;18.604;2022-09-13T23:11:31;13.00;99.90
17240;DHT22;9943;54.378;18.604;2022-09-13T23:14:02;13.00;99.90
17240;DHT22;9943;54.378;18.604;2022-09-13T23:16:38;13.00;99.90
17240;DHT22;9943;54.378;18.604;2022-09-13T23:19:10;13.00;99.90
17240;DHT22;9943;54.378;18.604;2022-09-13T23:21:39;12.90;99.90
17240;DHT22;9943;54.378;18.604;2022-09-13T23:24:11;12.90;99.90
17240;DHT22;9943;54.378;18.604;2022-09-13T23:26:40;13.00;99.90
17240;DHT22;9943;54.378;18.604;2022-09-13T23:29:13;13.00;99.90
17240;DHT22;9943;54.378;18.604;2022-09-13T23:31:44;12.90;99.90
17240;DHT22;9943;54.378;18.604;2022-09-13T23:34:19;13.00;99.90
17240;DHT22;9943;54.378;18.604;2022-09-13T23:36:48;12.90;99.90
17240;DHT22;9943;54.378;18.604;2022-09-13T23:39:18;12.90;99.90
17240;DHT22;9943;54.378;18.604;2022-09-13T23:41:49;13.00;99.90
17240;DHT22;9943;54.378;18.604;2022-09-13T23:44:18;12.90;99.90
17240;DHT22;9943;54.378;18.604;2022-09-13T23:46:52;12.90;99.90
17240;DHT22;9943;54.378;18.604;2022-09-13T23:49:20;12.80;99.90
17240;DHT22;9943;54.378;18.604;2022-09-13T23:51:48;12.90;99.90
17240;DHT22;9943;54.378;18.604;2022-09-13T23:54:37;13.00;99.90
17240;DHT22;9943;54.378;18.604;2022-09-13T23:57:06;12.90;99.90
17240;DHT22;9943;54.378;18.604;2022-09-13T23:59:34;13.00;99.90
